sensor_id;sensor_type;location;lat;lon;timestamp;temperature;humidity
12568;DHT22;6349;50.904;6.136;2024-03-17T00:01:38;7.50;99.90
12568;DHT22;6349;50.904;6.136;2024-03-17T00:03:41;7.60;99.90
12568;DHT22;6349;50.904;6.136;2024-03-17T00:05:42;7.60;99.90
12568;DHT22;6349;50.904;6.136;2024-03-17T00:07:42;7.50;99.90
12568;DHT22;6349;50.904;6.136;2024-03-17T00:09:43;7.50;99.90
12568;DHT22;6349;50.904;6.136;2024-03-17T00:11:44;7.50;99.90
12568;DHT22;6349;50.904;6.136;2024-03-17T00:13:45;7.50;99.90
12568;DHT22;6349;50.904;6.136;2024-03-17T00:15:46;7.50;99.90
12568;DHT22;6349;50.904;6.136;2024-03-17T00:17:47;7.50;99.90
12568;DHT22;6349;50.904;6.136;2024-03-17T00:19:47;7.50;99.90
12568;DHT22;6349;50.904;6.136;2024-03-17T00:21:48;7.40;99.90
12568;DHT22;6349;50.904;6.136;2024-03-17T00:23:51;7.40;99.90
12568;DHT22;6349;50.904;6.136;2024-03-17T00:25:51;7.40;99.90
12568;DHT22;6349;50.904;6.136;2024-03-17T00:27:52;7.40;99.90
12568;DHT22;6349;50.904;6.136;2024-03-17T00:29:55;7.40;99.90
12568;DHT22;6349;50.904;6.136;2024-03-17T00:31:56;7.30;99.90
12568;DHT22;6349;50.904;6.136;2024-03-17T00:33:57;7.30;99.90
12568;DHT22;6349;50.904;6.136;2024-03-17T00:35:59;7.30;99.90
12568;DHT22;6349;50.904;6.136;2024-03-17T00:38:00;7.30;99.90
12568;DHT22;6349;50.904;6.136;2024-03-17T00:40:04;7.30;99.90
12568;DHT22;6349;50.904;6.136;2024-03-17T00:42:06;7.30;99.90
12568;DHT22;6349;50.904;6.136;2024-03-17T00:44:07;7.30;99.90
12568;DHT22;6349;50.904;6.136;2024-03-17T00:46:07;7.30;99.90
12568;DHT22;6349;50.904;6.136;2024-03-17T00:48:08;7.30;99.90
12568;DHT22;6349;50.904;6.136;2024-03-17T00:50:09;7.30;99.90
12568;DHT22;6349;50.904;6.136;2024-03-17T00:52:11;7.30;99.90
12568;DHT22;6349;50.904;6.136;2024-03-17T00:54:12;7.20;99.90
12568;DHT22;6349;50.904;6.136;2024-03-17T00:56:13;7.30;99.90
12568;DHT22;6349;50.904;6.136;2024-03-17T00:58:13;7.20;99.90
12568;DHT22;6349;50.904;6.136;2024-03-17T01:00:14;7.20;99.90
12568;DHT22;6349;50.904;6.136;2024-03-17T01:02:15;7.20;99.90
12568;DHT22;6349;50.904;6.136;2024-03-17T01:04:19;7.20;99.90
12568;DHT22;6349;50.904;6.136;2024-03-17T01:06:19;7.20;99.90
12568;DHT22;6349;50.904;6.136;2024-03-17T01:08:20;7.10;99.90
12568;DHT22;6349;50.904;6.136;2024-03-17T01:10:21;7.10;99.90
12568;DHT22;6349;50.904;6.136;2024-03-17T01:12:21;7.10;99.90
12568;DHT22;6349;50.904;6.136;2024-03-17T01:14:22;7.00;99.90
12568;DHT22;6349;50.904;6.136;2024-03-17T01:16:22;7.00;99.90
12568;DHT22;6349;50.904;6.136;2024-03-17T01:18:23;7.00;99.90
12568;DHT22;6349;50.904;6.136;2024-03-17T01:20:23;7.00;99.90
12568;DHT22;6349;50.904;6.136;2024-03-17T01:22:24;7.00;99.90
12568;DHT22;6349;50.904;6.136;2024-03-17T01:24:25;7.10;99.90
12568;DHT22;6349;50.904;6.136;2024-03-17T01:26:25;7.00;99.90
12568;DHT22;6349;50.904;6.136;2024-03-17T01:28:26;7.10;99.90
12568;DHT22;6349;50.904;6.136;2024-03-17T01:30:27;7.00;99.90
12568;DHT22;6349;50.904;6.136;2024-03-17T01:32:28;7.00;99.90
12568;DHT22;6349;50.904;6.136;2024-03-17T01:34:28;7.00;99.90
12568;DHT22;6349;50.904;6.136;2024-03-17T01:36:29;7.00;99.90
12568;DHT22;6349;50.904;6.136;2024-03-17T01:38:29;7.00;99.90
12568;DHT22;6349;50.904;6.136;2024-03-17T01:40:30;6.90;99.90
12568;DHT22;6349;50.904;6.136;2024-03-17T01:42:31;6.90;99.90
12568;DHT22;6349;50.904;6.136;2024-03-17T01:44:31;6.90;99.90
12568;DHT22;6349;50.904;6.136;2024-03-17T01:46:32;6.90;99.90
12568;DHT22;6349;50.904;6.136;2024-03-17T01:48:33;6.90;99.90
12568;DHT22;6349;50.904;6.136;2024-03-17T01:50:37;6.90;99.90
12568;DHT22;6349;50.904;6.136;2024-03-17T01:52:38;6.90;99.90
12568;DHT22;6349;50.904;6.136;2024-03-17T01:54:40;6.80;99.90
12568;DHT22;6349;50.904;6.136;2024-03-17T01:56:42;6.80;99.90
12568;DHT22;6349;50.904;6.136;2024-03-17T01:58:44;6.80;99.90
12568;DHT22;6349;50.904;6.136;2024-03-17T02:00:45;6.80;99.90
12568;DHT22;6349;50.904;6.136;2024-03-17T02:02:45;6.80;99.90
12568;DHT22;6349;50.904;6.136;2024-03-17T02:04:46;6.80;99.90
12568;DHT22;6349;50.904;6.136;2024-03-17T02:06:48;6.70;99.90
12568;DHT22;6349;50.904;6.136;2024-03-17T02:08:50;6.70;99.90
12568;DHT22;6349;50.904;6.136;2024-03-17T02:10:55;6.80;99.90
12568;DHT22;6349;50.904;6.136;2024-03-17T02:12:55;6.80;99.90
12568;DHT22;6349;50.904;6.136;2024-03-17T02:15:00;6.80;99.90
12568;DHT22;6349;50.904;6.136;2024-03-17T02:17:01;6.70;99.90
12568;DHT22;6349;50.904;6.136;2024-03-17T02:19:01;6.70;99.90
12568;DHT22;6349;50.904;6.136;2024-03-17T02:21:02;6.70;99.90
12568;DHT22;6349;50.904;6.136;2024-03-17T02:23:02;6.70;99.90
12568;DHT22;6349;50.904;6.136;2024-03-17T02:25:03;6.70;99.90
12568;DHT22;6349;50.904;6.136;2024-03-17T02:27:04;6.60;99.90
12568;DHT22;6349;50.904;6.136;2024-03-17T02:29:05;6.70;99.90
12568;DHT22;6349;50.904;6.136;2024-03-17T02:31:07;6.70;99.90
12568;DHT22;6349;50.904;6.136;2024-03-17T02:33:08;6.70;99.90
12568;DHT22;6349;50.904;6.136;2024-03-17T02:35:09;6.70;99.90
12568;DHT22;6349;50.904;6.136;2024-03-17T02:37:11;6.70;99.90
12568;DHT22;6349;50.904;6.136;2024-03-17T02:39:12;6.70;99.90
12568;DHT22;6349;50.904;6.136;2024-03-17T02:41:34;6.70;99.90
12568;DHT22;6349;50.904;6.136;2024-03-17T02:43:35;6.70;99.90
12568;DHT22;6349;50.904;6.136;2024-03-17T02:45:36;6.80;99.90
12568;DHT22;6349;50.904;6.136;2024-03-17T02:47:36;6.70;99.90
12568;DHT22;6349;50.904;6.136;2024-03-17T02:49:37;6.70;99.90
12568;DHT22;6349;50.904;6.136;2024-03-17T02:51:39;6.70;99.90
12568;DHT22;6349;50.904;6.136;2024-03-17T02:53:44;6.70;99.90
12568;DHT22;6349;50.904;6.136;2024-03-17T02:55:48;6.70;99.90
12568;DHT22;6349;50.904;6.136;2024-03-17T02:57:48;6.70;99.90
12568;DHT22;6349;50.904;6.136;2024-03-17T02:59:49;6.70;99.90
12568;DHT22;6349;50.904;6.136;2024-03-17T03:01:49;6.70;99.90
12568;DHT22;6349;50.904;6.136;2024-03-17T03:03:50;6.70;99.90
12568;DHT22;6349;50.904;6.136;2024-03-17T03:05:50;6.70;99.90
12568;DHT22;6349;50.904;6.136;2024-03-17T03:07:52;6.70;99.90
12568;DHT22;6349;50.904;6.136;2024-03-17T03:09:53;6.70;99.90
12568;DHT22;6349;50.904;6.136;2024-03-17T03:11:54;6.70;99.90
12568;DHT22;6349;50.904;6.136;2024-03-17T03:13:55;6.70;99.90
12568;DHT22;6349;50.904;6.136;2024-03-17T03:15:55;6.80;99.90
12568;DHT22;6349;50.904;6.136;2024-03-17T03:17:56;6.80;99.90
12568;DHT22;6349;50.904;6.136;2024-03-17T03:19:56;6.70;99.90
12568;DHT22;6349;50.904;6.136;2024-03-17T03:21:57;6.70;99.90
12568;DHT22;6349;50.904;6.136;2024-03-17T03:23:57;6.70;99.90
12568;DHT22;6349;50.904;6.136;2024-03-17T03:25:59;6.70;99.90
12568;DHT22;6349;50.904;6.136;2024-03-17T03:28:00;6.70;99.90
12568;DHT22;6349;50.904;6.136;2024-03-17T03:30:00;6.70;99.90
12568;DHT22;6349;50.904;6.136;2024-03-17T03:32:01;6.70;99.90
12568;DHT22;6349;50.904;6.136;2024-03-17T03:34:02;6.70;99.90
12568;DHT22;6349;50.904;6.136;2024-03-17T03:36:14;6.70;99.90
12568;DHT22;6349;50.904;6.136;2024-03-17T03:38:15;6.60;99.90
12568;DHT22;6349;50.904;6.136;2024-03-17T03:40:15;6.60;99.90
12568;DHT22;6349;50.904;6.136;2024-03-17T03:42:16;6.60;99.90
12568;DHT22;6349;50.904;6.136;2024-03-17T03:44:17;6.60;99.90
12568;DHT22;6349;50.904;6.136;2024-03-17T03:46:18;6.60;99.90
12568;DHT22;6349;50.904;6.136;2024-03-17T03:48:19;6.60;99.90
12568;DHT22;6349;50.904;6.136;2024-03-17T03:50:21;6.60;99.90
12568;DHT22;6349;50.904;6.136;2024-03-17T03:52:22;6.50;99.90
12568;DHT22;6349;50.904;6.136;2024-03-17T03:54:23;6.50;99.90
12568;DHT22;6349;50.904;6.136;2024-03-17T03:56:24;6.50;99.90
12568;DHT22;6349;50.904;6.136;2024-03-17T03:58:26;6.50;99.90
12568;DHT22;6349;50.904;6.136;2024-03-17T04:00:26;6.50;99.90
12568;DHT22;6349;50.904;6.136;2024-03-17T04:02:31;6.50;99.90
12568;DHT22;6349;50.904;6.136;2024-03-17T04:04:34;6.50;99.90
12568;DHT22;6349;50.904;6.136;2024-03-17T04:06:34;6.50;99.90
12568;DHT22;6349;50.904;6.136;2024-03-17T04:08:38;6.50;99.90
12568;DHT22;6349;50.904;6.136;2024-03-17T04:10:43;6.50;99.90
12568;DHT22;6349;50.904;6.136;2024-03-17T04:12:44;6.50;99.90
12568;DHT22;6349;50.904;6.136;2024-03-17T04:14:45;6.50;99.90
12568;DHT22;6349;50.904;6.136;2024-03-17T04:16:47;6.50;99.90
12568;DHT22;6349;50.904;6.136;2024-03-17T04:18:47;6.50;99.90
12568;DHT22;6349;50.904;6.136;2024-03-17T04:20:48;6.50;99.90
12568;DHT22;6349;50.904;6.136;2024-03-17T04:22:48;6.50;99.90
12568;DHT22;6349;50.904;6.136;2024-03-17T04:24:50;6.50;99.90
12568;DHT22;6349;50.904;6.136;2024-03-17T04:26:53;6.50;99.90
12568;DHT22;6349;50.904;6.136;2024-03-17T04:28:54;6.50;99.90
12568;DHT22;6349;50.904;6.136;2024-03-17T04:31:05;6.50;99.90
12568;DHT22;6349;50.904;6.136;2024-03-17T04:33:06;6.50;99.90
12568;DHT22;6349;50.904;6.136;2024-03-17T04:35:07;6.50;99.90
12568;DHT22;6349;50.904;6.136;2024-03-17T04:37:07;6.50;99.90
12568;DHT22;6349;50.904;6.136;2024-03-17T04:39:08;6.50;99.90
12568;DHT22;6349;50.904;6.136;2024-03-17T04:41:08;6.50;99.90
12568;DHT22;6349;50.904;6.136;2024-03-17T04:43:10;6.50;99.90
12568;DHT22;6349;50.904;6.136;2024-03-17T04:45:10;6.50;99.90
12568;DHT22;6349;50.904;6.136;2024-03-17T04:47:12;6.50;99.90
12568;DHT22;6349;50.904;6.136;2024-03-17T04:49:13;6.40;99.90
12568;DHT22;6349;50.904;6.136;2024-03-17T04:51:15;6.40;99.90
12568;DHT22;6349;50.904;6.136;2024-03-17T04:53:16;6.40;99.90
12568;DHT22;6349;50.904;6.136;2024-03-17T04:55:17;6.40;99.90
12568;DHT22;6349;50.904;6.136;2024-03-17T04:57:17;6.40;99.90
12568;DHT22;6349;50.904;6.136;2024-03-17T04:59:18;6.40;99.90
12568;DHT22;6349;50.904;6.136;2024-03-17T05:01:19;6.40;99.90
12568;DHT22;6349;50.904;6.136;2024-03-17T05:03:20;6.40;99.90
12568;DHT22;6349;50.904;6.136;2024-03-17T05:05:20;6.40;99.90
12568;DHT22;6349;50.904;6.136;2024-03-17T05:07:21;6.30;99.90
12568;DHT22;6349;50.904;6.136;2024-03-17T05:09:22;6.40;99.90
12568;DHT22;6349;50.904;6.136;2024-03-17T05:11:23;6.40;99.90
12568;DHT22;6349;50.904;6.136;2024-03-17T05:13:26;6.40;99.90
12568;DHT22;6349;50.904;6.136;2024-03-17T05:15:26;6.40;99.90
12568;DHT22;6349;50.904;6.136;2024-03-17T05:17:27;6.40;99.90
12568;DHT22;6349;50.904;6.136;2024-03-17T05:19:28;6.40;99.90
12568;DHT22;6349;50.904;6.136;2024-03-17T05:21:28;6.30;99.90
12568;DHT22;6349;50.904;6.136;2024-03-17T05:23:32;6.30;99.90
12568;DHT22;6349;50.904;6.136;2024-03-17T05:25:33;6.30;99.90
12568;DHT22;6349;50.904;6.136;2024-03-17T05:27:37;6.30;99.90
12568;DHT22;6349;50.904;6.136;2024-03-17T05:29:37;6.30;99.90
12568;DHT22;6349;50.904;6.136;2024-03-17T05:31:38;6.30;99.90
12568;DHT22;6349;50.904;6.136;2024-03-17T05:33:44;6.30;99.90
12568;DHT22;6349;50.904;6.136;2024-03-17T05:35:49;6.40;99.90
12568;DHT22;6349;50.904;6.136;2024-03-17T05:37:49;6.40;99.90
12568;DHT22;6349;50.904;6.136;2024-03-17T05:39:50;6.40;99.90
12568;DHT22;6349;50.904;6.136;2024-03-17T05:41:51;6.40;99.90
12568;DHT22;6349;50.904;6.136;2024-03-17T05:43:52;6.40;99.90
12568;DHT22;6349;50.904;6.136;2024-03-17T05:45:53;6.40;99.90
12568;DHT22;6349;50.904;6.136;2024-03-17T05:47:54;6.40;99.90
12568;DHT22;6349;50.904;6.136;2024-03-17T05:49:56;6.40;99.90
12568;DHT22;6349;50.904;6.136;2024-03-17T05:51:57;6.30;99.90
12568;DHT22;6349;50.904;6.136;2024-03-17T05:53:57;6.30;99.90
12568;DHT22;6349;50.904;6.136;2024-03-17T05:55:59;6.30;99.90
12568;DHT22;6349;50.904;6.136;2024-03-17T05:58:00;6.30;99.90
12568;DHT22;6349;50.904;6.136;2024-03-17T06:00:02;6.30;99.90
12568;DHT22;6349;50.904;6.136;2024-03-17T06:02:02;6.20;99.90
12568;DHT22;6349;50.904;6.136;2024-03-17T06:04:03;6.30;99.90
12568;DHT22;6349;50.904;6.136;2024-03-17T06:06:06;6.30;99.90
12568;DHT22;6349;50.904;6.136;2024-03-17T06:08:13;6.20;99.90
12568;DHT22;6349;50.904;6.136;2024-03-17T06:10:13;6.30;99.90
12568;DHT22;6349;50.904;6.136;2024-03-17T06:12:14;6.30;99.90
12568;DHT22;6349;50.904;6.136;2024-03-17T06:14:14;6.40;99.90
12568;DHT22;6349;50.904;6.136;2024-03-17T06:16:15;6.40;99.90
12568;DHT22;6349;50.904;6.136;2024-03-17T06:18:16;6.40;99.90
12568;DHT22;6349;50.904;6.136;2024-03-17T06:20:19;6.50;99.90
12568;DHT22;6349;50.904;6.136;2024-03-17T06:22:19;6.50;99.90
12568;DHT22;6349;50.904;6.136;2024-03-17T06:24:20;6.50;99.90
12568;DHT22;6349;50.904;6.136;2024-03-17T06:26:21;6.50;99.90
12568;DHT22;6349;50.904;6.136;2024-03-17T06:28:21;6.50;99.90
12568;DHT22;6349;50.904;6.136;2024-03-17T06:30:22;6.60;99.90
12568;DHT22;6349;50.904;6.136;2024-03-17T06:32:22;6.60;99.90
12568;DHT22;6349;50.904;6.136;2024-03-17T06:34:24;6.70;99.90
12568;DHT22;6349;50.904;6.136;2024-03-17T06:36:24;6.70;99.90
12568;DHT22;6349;50.904;6.136;2024-03-17T06:38:25;6.70;99.90
12568;DHT22;6349;50.904;6.136;2024-03-17T06:40:25;6.70;99.90
12568;DHT22;6349;50.904;6.136;2024-03-17T06:42:26;6.70;99.90
12568;DHT22;6349;50.904;6.136;2024-03-17T06:44:27;6.70;99.90
12568;DHT22;6349;50.904;6.136;2024-03-17T06:46:30;6.80;99.90
12568;DHT22;6349;50.904;6.136;2024-03-17T06:48:31;6.80;99.90
12568;DHT22;6349;50.904;6.136;2024-03-17T06:50:33;6.80;99.90
12568;DHT22;6349;50.904;6.136;2024-03-17T06:52:33;6.90;99.90
12568;DHT22;6349;50.904;6.136;2024-03-17T06:54:34;7.00;99.90
12568;DHT22;6349;50.904;6.136;2024-03-17T06:56:36;7.10;99.90
12568;DHT22;6349;50.904;6.136;2024-03-17T06:58:38;7.20;99.90
12568;DHT22;6349;50.904;6.136;2024-03-17T07:00:38;7.30;99.90
12568;DHT22;6349;50.904;6.136;2024-03-17T07:02:39;7.40;99.90
12568;DHT22;6349;50.904;6.136;2024-03-17T07:04:40;7.40;99.90
12568;DHT22;6349;50.904;6.136;2024-03-17T07:06:41;7.50;99.90
12568;DHT22;6349;50.904;6.136;2024-03-17T07:08:42;7.60;99.90
12568;DHT22;6349;50.904;6.136;2024-03-17T07:10:42;7.70;99.90
12568;DHT22;6349;50.904;6.136;2024-03-17T07:12:43;7.80;99.90
12568;DHT22;6349;50.904;6.136;2024-03-17T07:14:44;7.90;99.90
12568;DHT22;6349;50.904;6.136;2024-03-17T07:16:44;8.00;99.90
12568;DHT22;6349;50.904;6.136;2024-03-17T07:18:45;8.10;99.90
12568;DHT22;6349;50.904;6.136;2024-03-17T07:20:45;8.10;99.90
12568;DHT22;6349;50.904;6.136;2024-03-17T07:22:48;8.20;99.90
12568;DHT22;6349;50.904;6.136;2024-03-17T07:24:50;8.20;99.90
12568;DHT22;6349;50.904;6.136;2024-03-17T07:26:55;8.20;99.90
12568;DHT22;6349;50.904;6.136;2024-03-17T07:28:56;8.20;99.90
12568;DHT22;6349;50.904;6.136;2024-03-17T07:30:58;8.20;99.90
12568;DHT22;6349;50.904;6.136;2024-03-17T07:33:00;8.30;99.90
12568;DHT22;6349;50.904;6.136;2024-03-17T07:35:01;8.30;99.90
12568;DHT22;6349;50.904;6.136;2024-03-17T07:37:01;8.40;99.90
12568;DHT22;6349;50.904;6.136;2024-03-17T07:39:03;8.40;99.90
12568;DHT22;6349;50.904;6.136;2024-03-17T07:41:08;8.50;99.90
12568;DHT22;6349;50.904;6.136;2024-03-17T07:43:09;8.60;99.90
12568;DHT22;6349;50.904;6.136;2024-03-17T07:45:09;8.60;99.90
12568;DHT22;6349;50.904;6.136;2024-03-17T07:47:11;8.70;99.90
12568;DHT22;6349;50.904;6.136;2024-03-17T07:49:12;8.70;99.90
12568;DHT22;6349;50.904;6.136;2024-03-17T07:51:14;8.70;99.90
12568;DHT22;6349;50.904;6.136;2024-03-17T07:53:15;8.80;99.90
12568;DHT22;6349;50.904;6.136;2024-03-17T07:55:15;8.80;99.90
12568;DHT22;6349;50.904;6.136;2024-03-17T07:57:16;8.80;99.90
12568;DHT22;6349;50.904;6.136;2024-03-17T07:59:17;8.90;99.90
12568;DHT22;6349;50.904;6.136;2024-03-17T08:01:18;9.00;99.90
12568;DHT22;6349;50.904;6.136;2024-03-17T08:03:19;9.10;99.90
12568;DHT22;6349;50.904;6.136;2024-03-17T08:05:19;9.20;99.90
12568;DHT22;6349;50.904;6.136;2024-03-17T08:07:20;9.30;99.90
12568;DHT22;6349;50.904;6.136;2024-03-17T08:09:21;9.40;99.90
12568;DHT22;6349;50.904;6.136;2024-03-17T08:11:23;9.50;99.90
12568;DHT22;6349;50.904;6.136;2024-03-17T08:13:25;9.60;99.90
12568;DHT22;6349;50.904;6.136;2024-03-17T08:15:25;9.80;99.90
12568;DHT22;6349;50.904;6.136;2024-03-17T08:17:26;9.90;99.90
12568;DHT22;6349;50.904;6.136;2024-03-17T08:19:26;10.00;99.90
12568;DHT22;6349;50.904;6.136;2024-03-17T08:21:28;10.10;99.90
12568;DHT22;6349;50.904;6.136;2024-03-17T08:23:30;10.10;99.90
12568;DHT22;6349;50.904;6.136;2024-03-17T08:25:31;10.20;99.90
12568;DHT22;6349;50.904;6.136;2024-03-17T08:27:31;10.30;99.90
12568;DHT22;6349;50.904;6.136;2024-03-17T08:29:32;10.30;99.90
12568;DHT22;6349;50.904;6.136;2024-03-17T08:31:36;10.40;99.90
12568;DHT22;6349;50.904;6.136;2024-03-17T08:33:37;10.40;99.90
12568;DHT22;6349;50.904;6.136;2024-03-17T08:35:37;10.40;99.90
12568;DHT22;6349;50.904;6.136;2024-03-17T08:37:38;10.40;99.90
12568;DHT22;6349;50.904;6.136;2024-03-17T08:39:39;10.40;99.90
12568;DHT22;6349;50.904;6.136;2024-03-17T08:41:39;10.40;99.90
12568;DHT22;6349;50.904;6.136;2024-03-17T08:43:40;10.40;99.90
12568;DHT22;6349;50.904;6.136;2024-03-17T08:45:43;10.50;99.90
12568;DHT22;6349;50.904;6.136;2024-03-17T08:47:43;10.50;99.90
12568;DHT22;6349;50.904;6.136;2024-03-17T08:49:44;10.60;99.90
12568;DHT22;6349;50.904;6.136;2024-03-17T08:51:44;10.70;99.90
12568;DHT22;6349;50.904;6.136;2024-03-17T08:53:45;10.80;99.90
12568;DHT22;6349;50.904;6.136;2024-03-17T08:55:46;10.90;99.90
12568;DHT22;6349;50.904;6.136;2024-03-17T08:57:46;10.90;99.90
12568;DHT22;6349;50.904;6.136;2024-03-17T08:59:47;11.00;99.90
12568;DHT22;6349;50.904;6.136;2024-03-17T09:01:47;11.00;99.90
12568;DHT22;6349;50.904;6.136;2024-03-17T09:03:48;11.10;99.90
12568;DHT22;6349;50.904;6.136;2024-03-17T09:05:49;11.10;99.90
12568;DHT22;6349;50.904;6.136;2024-03-17T09:07:51;11.20;99.90
12568;DHT22;6349;50.904;6.136;2024-03-17T09:09:51;11.20;99.90
12568;DHT22;6349;50.904;6.136;2024-03-17T09:11:52;11.30;99.90
12568;DHT22;6349;50.904;6.136;2024-03-17T09:13:53;11.30;99.90
12568;DHT22;6349;50.904;6.136;2024-03-17T09:15:58;11.30;99.90
12568;DHT22;6349;50.904;6.136;2024-03-17T09:18:00;11.40;99.90
12568;DHT22;6349;50.904;6.136;2024-03-17T09:20:00;11.40;99.90
12568;DHT22;6349;50.904;6.136;2024-03-17T09:22:01;11.40;99.90
12568;DHT22;6349;50.904;6.136;2024-03-17T09:24:01;11.50;99.90
12568;DHT22;6349;50.904;6.136;2024-03-17T09:26:08;11.50;99.90
12568;DHT22;6349;50.904;6.136;2024-03-17T09:28:08;11.60;99.90
12568;DHT22;6349;50.904;6.136;2024-03-17T09:30:09;11.60;99.90
12568;DHT22;6349;50.904;6.136;2024-03-17T09:32:11;11.70;99.90
12568;DHT22;6349;50.904;6.136;2024-03-17T09:34:18;11.70;99.90
12568;DHT22;6349;50.904;6.136;2024-03-17T09:36:19;11.80;99.90
12568;DHT22;6349;50.904;6.136;2024-03-17T09:38:20;11.90;99.90
12568;DHT22;6349;50.904;6.136;2024-03-17T09:40:21;11.90;99.90
12568;DHT22;6349;50.904;6.136;2024-03-17T09:42:23;12.00;99.90
12568;DHT22;6349;50.904;6.136;2024-03-17T09:44:24;12.00;99.90
12568;DHT22;6349;50.904;6.136;2024-03-17T09:46:26;12.00;99.90
12568;DHT22;6349;50.904;6.136;2024-03-17T09:48:29;12.10;99.90
12568;DHT22;6349;50.904;6.136;2024-03-17T09:50:30;12.20;99.90
12568;DHT22;6349;50.904;6.136;2024-03-17T09:52:34;12.20;99.90
12568;DHT22;6349;50.904;6.136;2024-03-17T09:54:35;12.30;99.90
12568;DHT22;6349;50.904;6.136;2024-03-17T09:56:35;12.30;99.90
12568;DHT22;6349;50.904;6.136;2024-03-17T09:58:36;12.40;99.90
12568;DHT22;6349;50.904;6.136;2024-03-17T10:00:36;12.50;99.90
12568;DHT22;6349;50.904;6.136;2024-03-17T10:02:42;12.50;99.90
12568;DHT22;6349;50.904;6.136;2024-03-17T10:04:44;12.50;99.90
12568;DHT22;6349;50.904;6.136;2024-03-17T10:06:45;12.40;99.90
12568;DHT22;6349;50.904;6.136;2024-03-17T10:08:51;12.40;99.90
12568;DHT22;6349;50.904;6.136;2024-03-17T10:10:53;12.40;99.90
12568;DHT22;6349;50.904;6.136;2024-03-17T10:12:56;12.40;99.90
12568;DHT22;6349;50.904;6.136;2024-03-17T10:15:00;12.40;99.90
12568;DHT22;6349;50.904;6.136;2024-03-17T10:17:01;12.50;99.90
12568;DHT22;6349;50.904;6.136;2024-03-17T10:19:16;12.60;99.90
12568;DHT22;6349;50.904;6.136;2024-03-17T10:21:26;12.80;99.90
12568;DHT22;6349;50.904;6.136;2024-03-17T10:23:27;13.00;99.90
12568;DHT22;6349;50.904;6.136;2024-03-17T10:25:29;13.10;99.90
12568;DHT22;6349;50.904;6.136;2024-03-17T10:27:30;13.20;99.90
12568;DHT22;6349;50.904;6.136;2024-03-17T10:29:32;13.20;99.90
12568;DHT22;6349;50.904;6.136;2024-03-17T10:31:38;13.30;99.90
12568;DHT22;6349;50.904;6.136;2024-03-17T10:33:40;13.40;99.90
12568;DHT22;6349;50.904;6.136;2024-03-17T10:35:43;13.50;99.90
12568;DHT22;6349;50.904;6.136;2024-03-17T10:38:01;13.50;99.90
12568;DHT22;6349;50.904;6.136;2024-03-17T10:40:02;13.50;99.90
12568;DHT22;6349;50.904;6.136;2024-03-17T10:42:05;13.60;99.90
12568;DHT22;6349;50.904;6.136;2024-03-17T10:44:07;13.60;99.90
12568;DHT22;6349;50.904;6.136;2024-03-17T10:46:08;13.60;99.90
12568;DHT22;6349;50.904;6.136;2024-03-17T10:48:09;13.80;99.90
12568;DHT22;6349;50.904;6.136;2024-03-17T10:50:20;13.80;99.90
12568;DHT22;6349;50.904;6.136;2024-03-17T10:52:21;13.70;99.90
12568;DHT22;6349;50.904;6.136;2024-03-17T10:54:24;13.60;99.90
12568;DHT22;6349;50.904;6.136;2024-03-17T10:56:28;13.60;99.90
12568;DHT22;6349;50.904;6.136;2024-03-17T10:58:43;13.50;99.90
12568;DHT22;6349;50.904;6.136;2024-03-17T11:00:50;13.50;99.90
12568;DHT22;6349;50.904;6.136;2024-03-17T11:02:54;13.50;99.90
12568;DHT22;6349;50.904;6.136;2024-03-17T11:05:15;13.40;99.90
12568;DHT22;6349;50.904;6.136;2024-03-17T11:07:17;13.40;99.90
12568;DHT22;6349;50.904;6.136;2024-03-17T11:09:19;13.40;99.90
12568;DHT22;6349;50.904;6.136;2024-03-17T11:11:36;13.30;99.90
12568;DHT22;6349;50.904;6.136;2024-03-17T11:13:42;13.30;99.90
12568;DHT22;6349;50.904;6.136;2024-03-17T11:15:42;13.30;99.90
12568;DHT22;6349;50.904;6.136;2024-03-17T11:17:43;13.30;99.90
12568;DHT22;6349;50.904;6.136;2024-03-17T11:19:44;13.20;99.90
12568;DHT22;6349;50.904;6.136;2024-03-17T11:22:41;13.10;99.90
12568;DHT22;6349;50.904;6.136;2024-03-17T11:24:42;13.10;99.90
12568;DHT22;6349;50.904;6.136;2024-03-17T11:26:42;13.10;99.90
12568;DHT22;6349;50.904;6.136;2024-03-17T11:30:50;13.10;99.90
12568;DHT22;6349;50.904;6.136;2024-03-17T11:35:35;13.20;99.90
12568;DHT22;6349;50.904;6.136;2024-03-17T11:37:42;13.20;99.90
12568;DHT22;6349;50.904;6.136;2024-03-17T11:39:47;13.20;99.90
12568;DHT22;6349;50.904;6.136;2024-03-17T11:41:52;13.20;99.90
12568;DHT22;6349;50.904;6.136;2024-03-17T11:44:13;13.30;99.90
12568;DHT22;6349;50.904;6.136;2024-03-17T11:46:15;13.20;99.90
12568;DHT22;6349;50.904;6.136;2024-03-17T11:48:16;13.20;99.90
12568;DHT22;6349;50.904;6.136;2024-03-17T11:50:17;13.30;99.90
12568;DHT22;6349;50.904;6.136;2024-03-17T11:52:19;13.30;99.90
12568;DHT22;6349;50.904;6.136;2024-03-17T11:54:22;13.30;99.90
12568;DHT22;6349;50.904;6.136;2024-03-17T11:56:24;13.30;99.90
12568;DHT22;6349;50.904;6.136;2024-03-17T11:58:24;13.40;99.90
12568;DHT22;6349;50.904;6.136;2024-03-17T12:00:25;13.40;99.90
12568;DHT22;6349;50.904;6.136;2024-03-17T12:02:30;13.50;99.90
12568;DHT22;6349;50.904;6.136;2024-03-17T12:04:31;13.60;99.90
12568;DHT22;6349;50.904;6.136;2024-03-17T12:06:32;13.60;99.90
12568;DHT22;6349;50.904;6.136;2024-03-17T12:08:33;13.70;99.90
12568;DHT22;6349;50.904;6.136;2024-03-17T12:10:34;13.70;99.90
12568;DHT22;6349;50.904;6.136;2024-03-17T12:12:34;13.70;99.90
12568;DHT22;6349;50.904;6.136;2024-03-17T12:14:36;13.70;99.90
12568;DHT22;6349;50.904;6.136;2024-03-17T12:16:37;13.80;99.90
12568;DHT22;6349;50.904;6.136;2024-03-17T12:18:38;13.80;99.90
12568;DHT22;6349;50.904;6.136;2024-03-17T12:20:41;13.80;99.90
12568;DHT22;6349;50.904;6.136;2024-03-17T12:22:41;13.70;99.90
12568;DHT22;6349;50.904;6.136;2024-03-17T12:24:43;13.80;99.90
12568;DHT22;6349;50.904;6.136;2024-03-17T12:26:45;13.70;99.90
12568;DHT22;6349;50.904;6.136;2024-03-17T12:28:46;13.80;99.90
12568;DHT22;6349;50.904;6.136;2024-03-17T12:30:49;13.80;99.90
12568;DHT22;6349;50.904;6.136;2024-03-17T12:32:50;13.80;99.90
12568;DHT22;6349;50.904;6.136;2024-03-17T12:34:54;13.90;99.90
12568;DHT22;6349;50.904;6.136;2024-03-17T12:36:55;13.90;99.90
12568;DHT22;6349;50.904;6.136;2024-03-17T12:39:10;13.90;99.90
12568;DHT22;6349;50.904;6.136;2024-03-17T12:41:17;13.90;99.90
12568;DHT22;6349;50.904;6.136;2024-03-17T12:43:19;13.80;99.90
12568;DHT22;6349;50.904;6.136;2024-03-17T12:45:21;13.70;99.90
12568;DHT22;6349;50.904;6.136;2024-03-17T12:47:27;13.70;99.90
12568;DHT22;6349;50.904;6.136;2024-03-17T12:49:29;13.70;99.90
12568;DHT22;6349;50.904;6.136;2024-03-17T12:51:33;13.70;99.90
12568;DHT22;6349;50.904;6.136;2024-03-17T12:53:34;13.70;99.90
12568;DHT22;6349;50.904;6.136;2024-03-17T12:55:34;13.70;99.90
12568;DHT22;6349;50.904;6.136;2024-03-17T13:00:23;13.70;99.90
12568;DHT22;6349;50.904;6.136;2024-03-17T13:02:33;13.80;99.90
12568;DHT22;6349;50.904;6.136;2024-03-17T13:04:33;13.80;99.90
12568;DHT22;6349;50.904;6.136;2024-03-17T13:06:34;13.80;99.90
12568;DHT22;6349;50.904;6.136;2024-03-17T13:08:34;13.90;99.90
12568;DHT22;6349;50.904;6.136;2024-03-17T13:10:35;13.90;99.90
12568;DHT22;6349;50.904;6.136;2024-03-17T13:12:36;13.90;99.90
12568;DHT22;6349;50.904;6.136;2024-03-17T13:14:36;14.00;99.90
12568;DHT22;6349;50.904;6.136;2024-03-17T13:16:37;14.00;99.90
12568;DHT22;6349;50.904;6.136;2024-03-17T13:18:37;14.10;99.90